Time;durP1;ratioP1;P1;durP2;ratioP2;P2;SDS_P1;SDS_P2;PMS_P1;PMS_P2;Temp;Humidity;BMP_temperature;BMP_pressure;BME280_temperature;BME280_humidity;BME280_pressure;Samples;Min_cycle;Max_cycle;Signal;HPM_P1;HPM_P2
2021/04/20 00:04:42;;;;;;;12.85;9.48;;;;;;;9.05;65.22;97686.84;10442441;28;20559;-75
2021/04/20 00:10:12;;;;;;;14.20;10.43;;;;;;;8.96;65.66;97687.56;10457078;28;20491;-75
2021/04/20 00:15:34;;;;;;;13.68;9.80;;;;;;;8.91;65.79;97683.78;10457185;28;20380;-73
2021/04/20 00:20:54;;;;;;;12.32;9.15;;;;;;;8.84;65.85;97682.59;10429251;28;20053;-75
2021/04/20 00:26:15;;;;;;;11.93;7.82;;;;;;;8.82;65.89;97676.16;10456683;28;20132;-76
2021/04/20 00:31:35;;;;;;;9.85;7.07;;;;;;;8.76;65.95;97667.34;10456571;28;20084;-76
2021/04/20 00:36:56;;;;;;;11.20;7.78;;;;;;;8.67;66.58;97662.50;10444269;28;20045;-76
2021/04/20 00:42:17;;;;;;;8.43;6.35;;;;;;;8.54;66.50;97660.88;10436852;28;20048;-75
2021/04/20 00:47:37;;;;;;;9.63;6.85;;;;;;;8.45;66.59;97667.91;10464880;28;20384;-75
2021/04/20 00:52:58;;;;;;;8.10;5.53;;;;;;;8.39;66.78;97669.47;10422317;28;20407;-74
2021/04/20 00:58:21;;;;;;;7.97;5.60;;;;;;;8.34;66.95;97657.31;10464217;28;20045;-75
2021/04/20 01:03:42;;;;;;;7.82;5.95;;;;;;;8.32;67.47;97648.81;10449496;28;20053;-73
2021/04/20 01:09:05;;;;;;;7.75;5.45;;;;;;;8.36;67.65;97660.25;10449558;28;20461;-73
2021/04/20 01:14:26;;;;;;;6.93;5.28;;;;;;;8.39;67.23;97661.13;10462933;28;20148;-75
2021/04/20 01:19:46;;;;;;;7.35;5.03;;;;;;;8.36;67.42;97656.75;10463156;28;20041;-76
2021/04/20 01:25:08;;;;;;;6.60;4.97;;;;;;;8.36;67.57;97648.41;10449155;28;20552;-74
2021/04/20 01:30:28;;;;;;;7.38;4.63;;;;;;;8.32;67.64;97655.13;10435469;28;20052;-75
2021/04/20 01:35:49;;;;;;;6.95;4.78;;;;;;;8.27;67.88;97658.91;10435499;28;20043;-75
2021/04/20 01:41:10;;;;;;;7.28;4.40;;;;;;;8.15;67.96;97669.13;10462461;28;20041;-75
2021/04/20 01:46:31;;;;;;;6.55;4.78;;;;;;;7.96;68.12;97669.03;10448675;28;20045;-76
2021/04/20 01:51:52;;;;;;;7.53;5.18;;;;;;;7.81;68.38;97663.69;10434085;28;20048;-75
2021/04/20 01:57:13;;;;;;;5.70;4.55;;;;;;;7.63;68.65;97666.56;10461743;28;20112;-75
2021/04/20 02:02:34;;;;;;;6.15;4.22;;;;;;;7.53;68.95;97663.00;10461378;28;20048;-75
2021/04/20 02:07:54;;;;;;;5.85;4.00;;;;;;;7.42;69.05;97657.94;10446801;28;20072;-75
2021/04/20 02:13:16;;;;;;;4.95;3.83;;;;;;;7.31;69.24;97659.22;10447020;28;20048;-77
2021/04/20 02:18:47;;;;;;;5.53;3.90;;;;;;;7.23;69.28;97663.38;10432214;28;20092;-75
2021/04/20 02:24:12;;;;;;;5.57;3.88;;;;;;;7.10;69.61;97656.88;10446501;28;20048;-78
2021/04/20 02:29:33;;;;;;;5.95;3.55;;;;;;;7.00;69.99;97658.13;10446230;28;20076;-76
2021/04/20 02:34:53;;;;;;;5.05;3.58;;;;;;;6.93;70.01;97659.66;10419200;28;20057;-75
2021/04/20 02:40:23;;;;;;;5.18;3.78;;;;;;;6.84;69.99;97644.41;10445645;28;20509;-74
2021/04/20 02:45:44;;;;;;;5.10;3.40;;;;;;;6.77;70.43;97650.06;10460287;28;20072;-76
2021/04/20 02:51:09;;;;;;;5.65;3.80;;;;;;;6.70;70.62;97650.88;10445683;28;20144;-75
2021/04/20 02:56:30;;;;;;;7.57;4.53;;;;;;;6.58;70.64;97654.13;10460535;28;20068;-75
2021/04/20 03:01:51;;;;;;;5.55;4.28;;;;;;;6.41;70.97;97645.06;10458686;28;20124;-75
2021/04/20 03:07:12;;;;;;;7.15;5.25;;;;;;;6.28;71.05;97651.66;10445254;28;20135;-75
2021/04/20 03:12:35;;;;;;;7.03;4.85;;;;;;;6.25;71.36;97656.28;10459043;28;20143;-75
2021/04/20 03:17:56;;;;;;;7.25;5.07;;;;;;;6.24;71.76;97645.78;10447090;28;20454;-75
2021/04/20 03:23:18;;;;;;;9.60;5.00;;;;;;;6.21;71.75;97649.69;10445312;28;20479;-76
2021/04/20 03:28:38;;;;;;;5.47;4.65;;;;;;;6.26;71.75;97641.13;10431382;28;20052;-75
2021/04/20 03:34:28;;;;;;;7.10;4.97;;;;;;;6.32;72.04;97649.94;10458038;28;20044;-75
2021/04/20 03:39:50;;;;;;;7.68;4.88;;;;;;;6.37;71.96;97639.16;10457574;28;20047;-75
2021/04/20 03:45:14;;;;;;;7.88;5.18;;;;;;;6.44;72.24;97639.09;10443910;28;20041;-77
2021/04/20 03:50:35;;;;;;;8.05;5.93;;;;;;;6.55;71.66;97643.44;10443702;28;20065;-76
2021/04/20 03:55:56;;;;;;;9.90;7.35;;;;;;;6.64;71.65;97639.28;10442824;28;20037;-75
2021/04/20 04:01:16;;;;;;;11.25;7.85;;;;;;;6.65;72.13;97635.94;10456289;28;20175;-75
2021/04/20 04:06:40;;;;;;;10.25;7.47;;;;;;;6.76;71.85;97638.25;10442810;28;20065;-75
2021/04/20 04:12:03;;;;;;;10.90;7.88;;;;;;;6.94;71.96;97647.25;10441598;28;20091;-74
2021/04/20 04:17:23;;;;;;;11.85;8.80;;;;;;;7.15;71.69;97644.81;10429052;28;20053;-75
2021/04/20 04:23:08;;;;;;;13.10;9.35;;;;;;;7.39;71.76;97648.00;10442065;28;20051;-76
2021/04/20 04:28:29;;;;;;;12.88;8.85;;;;;;;7.62;71.40;97658.78;10444330;28;20072;-75
2021/04/20 04:33:50;;;;;;;12.15;9.60;;;;;;;7.74;70.98;97665.31;10455873;28;20415;-76
2021/04/20 04:39:15;;;;;;;12.35;9.23;;;;;;;7.79;71.17;97671.88;10400122;28;20059;-76
2021/04/20 04:44:36;;;;;;;12.95;10.02;;;;;;;7.88;71.07;97679.53;10455530;28;20120;-75
2021/04/20 04:50:00;;;;;;;14.80;10.30;;;;;;;8.02;70.81;97675.81;10441795;28;20091;-74
2021/04/20 04:55:20;;;;;;;13.43;10.50;;;;;;;8.14;70.90;97680.81;10441940;28;20099;-76
2021/04/20 05:00:41;;;;;;;12.32;9.98;;;;;;;8.28;70.58;97685.38;10456001;28;20084;-75
2021/04/20 05:06:02;;;;;;;13.27;10.25;;;;;;;8.42;70.40;97685.03;10428487;28;20049;-75
2021/04/20 05:11:23;;;;;;;15.98;10.82;;;;;;;8.51;70.22;97692.66;10443072;28;20045;-75
2021/04/20 05:16:51;;;;;;;14.07;10.48;;;;;;;8.57;70.07;97691.03;10442102;28;20060;-74
2021/04/20 05:22:12;;;;;;;13.27;9.95;;;;;;;9.58;71.54;97704.53;10416224;28;20049;-74
2021/04/20 05:27:33;;;;;;;15.35;10.50;;;;;;;11.99;70.64;97705.06;10464155;28;20045;-75
2021/04/20 05:32:53;;;;;;;17.52;12.25;;;;;;;12.62;68.35;97711.59;10436384;28;20167;-75
2021/04/20 05:38:18;;;;;;;12.25;10.95;;;;;;;20.20;70.65;97703.50;10448529;28;20051;-78
2021/04/20 05:43:38;;;;;;;13.70;10.63;;;;;;;26.35;55.99;97711.94;10447577;28;20051;-76
2021/04/20 05:48:59;;;;;;;16.05;11.77;;;;;;;30.65;43.62;97724.78;10461090;28;20049;-78
2021/04/20 05:54:20;;;;;;;13.73;11.70;;;;;;;33.52;32.69;97725.41;10460805;28;20116;-77
2021/04/20 05:59:40;;;;;;;14.77;11.93;;;;;;;35.39;24.86;97731.81;10460560;28;20044;-79
2021/04/20 06:05:05;;;;;;;13.93;11.93;;;;;;;36.78;20.67;97732.88;10460030;28;20045;-76
2021/04/20 06:10:25;;;;;;;12.30;11.02;;;;;;;37.48;17.73;97731.63;10459947;28;20040;-76
2021/04/20 06:15:46;;;;;;;11.95;10.85;;;;;;;39.35;15.49;97732.13;10460045;28;20057;-76
2021/04/20 06:21:07;;;;;;;;;;;;;;;40.67;13.77;97726.97;10459991;28;20049;-75
2021/04/20 06:26:28;;;;;;;13.85;10.65;;;;;;;40.85;12.11;97726.69;10459554;28;20252;-76
2021/04/20 06:31:48;;;;;;;13.52;11.05;;;;;;;41.07;11.54;97739.38;10445366;28;20045;-78
2021/04/20 06:37:09;;;;;;;11.48;10.27;;;;;;;41.32;10.90;97721.19;10457201;28;20110;-79
2021/04/20 06:42:29;;;;;;;11.95;10.45;;;;;;;42.79;10.25;97733.69;10450765;28;20044;-79
2021/04/20 06:48:00;;;;;;;12.43;9.82;;;;;;;43.82;9.57;97734.44;10398647;28;20049;-77
2021/04/20 06:53:26;;;;;;;11.50;9.48;;;;;;;44.88;8.50;97723.47;10400077;28;20040;-79
2021/04/20 06:59:15;;;;;;;10.35;9.25;;;;;;;45.57;8.25;97719.16;10409347;28;20398;-77
2021/04/20 07:04:47;;;;;;;9.60;8.63;;;;;;;46.68;7.20;97726.88;10433503;28;20045;-79
2021/04/20 07:10:38;;;;;;;9.00;8.10;;;;;;;44.94;7.26;97723.06;10427334;28;20048;-78
2021/04/20 07:16:34;;;;;;;10.00;9.00;;;;;;;38.49;10.12;97712.03;10424294;28;20522;-73
2021/04/20 07:22:49;;;;;;;9.70;8.57;;;;;;;38.98;11.20;97706.19;10454899;28;20040;-74
2021/04/20 07:28:45;;;;;;;9.05;8.15;;;;;;;39.38;10.82;97710.09;10454272;28;20407;-74
2021/04/20 07:34:21;;;;;;;10.02;7.90;;;;;;;36.57;12.11;97704.56;10443879;28;20048;-76
2021/04/20 07:40:08;;;;;;;10.95;8.82;;;;;;;36.71;12.44;97706.22;10438696;28;20036;-74
2021/04/20 07:45:43;;;;;;;9.52;8.18;;;;;;;38.27;12.50;97702.09;10451307;28;20095;-74
2021/04/20 07:51:36;;;;;;;8.80;7.95;;;;;;;39.27;12.08;97696.78;10448589;28;20029;-75
2021/04/20 07:57:26;;;;;;;8.02;7.22;;;;;;;41.34;10.16;97691.06;10432030;28;20044;-75
2021/04/20 08:03:07;;;;;;;7.70;6.90;;;;;;;38.34;12.14;97703.25;10437651;28;20052;-74
2021/04/20 08:08:51;;;;;;;11.15;7.40;;;;;;;34.67;14.17;97689.78;10436691;28;20397;-75
2021/04/20 08:14:39;;;;;;;9.40;7.30;;;;;;;38.02;13.51;97695.88;10443286;28;20033;-72
2021/04/20 08:20:03;;;;;;;9.70;6.70;;;;;;;38.59;11.96;97687.53;10444569;28;20045;-74
2021/04/20 08:25:43;;;;;;;6.75;5.88;;;;;;;43.06;10.00;97688.03;10455915;28;20059;-75
2021/04/20 08:31:23;;;;;;;7.95;6.80;;;;;;;46.61;7.90;97686.91;10455370;28;20122;-75
2021/04/20 08:37:06;;;;;;;6.57;5.97;;;;;;;48.10;6.30;97690.16;10457214;28;20064;-75
2021/04/20 08:42:36;;;;;;;16.63;6.75;;;;;;;42.12;8.78;97682.09;10454901;28;20049;-76
2021/04/20 08:48:13;;;;;;;7.38;5.95;;;;;;;44.84;8.44;97674.44;10453934;28;20098;-77
2021/04/20 08:54:40;;;;;;;6.43;5.80;;;;;;;41.41;9.01;97666.50;10437107;28;20598;-77
2021/04/20 09:00:13;;;;;;;7.68;6.55;;;;;;;34.94;11.80;97681.00;10457486;28;20048;-78
2021/04/20 09:05:56;;;;;;;8.88;7.97;;;;;;;31.06;14.79;97665.13;10458249;28;20041;-76
2021/04/20 09:11:27;;;;;;;8.43;7.53;;;;;;;30.13;17.12;97657.75;10458693;28;20029;-75
2021/04/20 09:16:59;;;;;;;9.57;7.63;;;;;;;34.24;15.14;97661.28;10437963;28;20053;-75
2021/04/20 09:22:43;;;;;;;9.32;7.72;;;;;;;32.38;14.83;97670.09;10439532;28;20045;-76
2021/04/20 09:28:15;;;;;;;7.47;6.68;;;;;;;38.49;13.51;97662.47;10457056;28;20106;-77
2021/04/20 09:33:54;;;;;;;7.95;6.18;;;;;;;41.47;11.28;97665.41;10433211;28;20549;-75
2021/04/20 09:39:15;;;;;;;7.18;6.47;;;;;;;45.66;7.93;97655.09;10447424;28;20049;-76
2021/04/20 09:45:14;;;;;;;7.35;6.45;;;;;;;45.94;6.57;97661.09;10433392;28;20399;-76
2021/04/20 09:51:03;;;;;;;7.85;6.60;;;;;;;43.71;7.44;97657.97;10447018;28;20479;-74
2021/04/20 09:56:41;;;;;;;8.70;6.07;;;;;;;43.53;7.74;97655.56;10471929;28;20052;-76
2021/04/20 10:02:26;;;;;;;8.98;7.20;;;;;;;35.39;10.77;97644.78;10442230;28;20044;-74
2021/04/20 10:08:06;;;;;;;7.78;6.15;;;;;;;35.95;13.12;97643.63;10440727;28;20040;-73
2021/04/20 10:13:59;;;;;;;7.50;6.55;;;;;;;38.28;10.93;97644.50;10454054;28;20037;-75
2021/04/20 10:19:44;;;;;;;7.57;6.78;;;;;;;42.39;9.67;97646.00;10436301;28;20037;-74
2021/04/20 10:25:19;;;;;;;7.95;6.57;;;;;;;45.10;8.13;97639.44;10425275;28;20037;-75
2021/04/20 10:30:42;;;;;;;7.78;6.22;;;;;;;40.44;9.33;97634.59;10439164;28;20056;-75
2021/04/20 10:36:04;;;;;;;7.68;6.88;;;;;;;33.18;12.37;97631.47;10454521;28;20050;-74
2021/04/20 10:41:33;;;;;;;8.52;7.25;;;;;;;28.84;15.96;97617.88;10441573;28;20044;-75
2021/04/20 10:46:55;;;;;;;8.70;7.40;;;;;;;26.15;18.36;97620.28;10451284;28;20056;-74
2021/04/20 10:52:18;;;;;;;7.82;6.88;;;;;;;24.31;20.35;97620.22;10447558;28;20488;-75
2021/04/20 10:57:45;;;;;;;11.10;6.63;;;;;;;23.35;22.22;97610.38;10386522;28;20041;-75
2021/04/20 11:03:06;;;;;;;8.60;7.63;;;;;;;22.76;22.97;97606.56;10375076;28;20053;-74
2021/04/20 11:08:43;;;;;;;10.80;7.55;;;;;;;22.23;24.57;97605.59;10373604;28;20045;-74
2021/04/20 11:14:04;;;;;;;10.15;7.43;;;;;;;23.55;24.64;97596.47;10387802;28;20491;-79
2021/04/20 11:19:25;;;;;;;8.23;6.07;;;;;;;23.81;24.24;97590.41;10393304;28;20570;-75
2021/04/20 11:24:50;;;;;;;10.40;6.68;;;;;;;24.24;24.47;97582.38;10454805;28;20114;-76
2021/04/20 11:30:14;;;;;;;6.20;5.65;;;;;;;25.42;23.66;97577.03;10441876;28;20115;-75
2021/04/20 11:35:47;;;;;;;6.40;5.30;;;;;;;25.19;23.01;97574.03;10413436;28;20044;-75
2021/04/20 11:41:08;;;;;;;8.60;5.13;;;;;;;25.34;23.47;97561.28;10455896;28;20041;-76
2021/04/20 11:46:31;;;;;;;5.00;4.05;;;;;;;25.58;22.10;97563.56;10454506;28;20052;-77
2021/04/20 11:51:52;;;;;;;7.25;4.03;;;;;;;25.30;21.63;97558.41;10440670;28;20542;-75
2021/04/20 11:57:15;;;;;;;4.65;2.50;;;;;;;24.67;20.50;97549.31;10454124;28;20498;-75
2021/04/20 12:02:37;;;;;;;5.97;3.20;;;;;;;24.56;20.39;97542.09;10453804;28;20400;-73
2021/04/20 12:07:59;;;;;;;5.72;3.60;;;;;;;23.85;20.43;97547.72;10468005;28;20483;-74
2021/04/20 12:13:24;;;;;;;4.78;4.30;;;;;;;23.14;20.59;97544.59;10454027;28;20045;-74
2021/04/20 12:18:47;;;;;;;4.75;4.07;;;;;;;21.89;21.37;97540.97;10439658;28;20068;-74
2021/04/20 12:24:08;;;;;;;5.65;4.50;;;;;;;21.25;22.22;97541.03;10453503;28;20063;-75
2021/04/20 12:29:41;;;;;;;8.90;5.45;;;;;;;21.42;23.46;97540.03;10453531;28;20425;-73
2021/04/20 12:35:01;;;;;;;6.45;4.78;;;;;;;21.45;23.56;97532.25;10460744;28;20049;-75
2021/04/20 12:40:22;;;;;;;6.60;4.97;;;;;;;21.68;23.58;97524.91;10461500;28;20099;-74
2021/04/20 12:45:42;;;;;;;7.68;4.07;;;;;;;22.12;23.41;97507.34;10461603;28;20052;-74
2021/04/20 12:51:05;;;;;;;5.90;3.92;;;;;;;22.34;23.31;97513.41;10447305;28;20107;-74
2021/04/20 12:56:35;;;;;;;4.40;3.80;;;;;;;22.09;23.36;97512.25;10433432;28;20115;-73
2021/04/20 13:01:59;;;;;;;4.93;3.17;;;;;;;22.12;22.88;97504.50;10460952;28;20060;-76
2021/04/20 13:07:27;;;;;;;5.00;4.13;;;;;;;22.07;21.88;97498.00;10460877;28;20041;-74
2021/04/20 13:12:58;;;;;;;3.80;3.13;;;;;;;21.95;22.28;97484.25;10460678;28;20045;-75
2021/04/20 13:18:20;;;;;;;4.97;4.30;;;;;;;21.90;21.66;97482.75;10448022;28;20048;-77
2021/04/20 13:23:46;;;;;;;6.00;3.65;;;;;;;21.75;22.01;97486.72;10415089;28;20044;-76
2021/04/20 13:29:10;;;;;;;5.10;4.05;;;;;;;21.15;22.04;97467.75;10433358;28;20041;-74
2021/04/20 13:34:51;;;;;;;;;;;;;;;21.22;22.26;97467.84;10392044;28;20517;-76
2021/04/20 13:40:15;;;;;;;4.85;3.95;;;;;;;21.67;22.25;97464.56;10427178;28;19932;-74
2021/04/20 13:45:37;;;;;;;3.22;2.78;;;;;;;22.10;21.30;97458.97;10417436;28;20040;-76
2021/04/20 13:50:58;;;;;;;5.10;3.20;;;;;;;22.51;20.96;97454.69;10430844;28;20041;-73
2021/04/20 13:56:23;;;;;;;5.45;2.60;;;;;;;22.29;20.58;97460.72;10416899;28;20052;-71
2021/04/20 14:01:49;;;;;;;5.63;3.25;;;;;;;22.57;20.72;97452.66;10453889;28;20111;-80
2021/04/20 14:07:15;;;;;;;4.72;2.67;;;;;;;22.37;20.28;97458.00;10443289;28;20052;-80
2021/04/20 14:12:52;;;;;;;4.63;2.75;;;;;;;21.84;19.84;97471.28;10456211;28;20129;-80
2021/04/20 14:18:16;;;;;;;8.35;2.70;;;;;;;21.42;19.88;97460.53;10426772;28;20090;-76
2021/04/20 14:23:42;;;;;;;5.55;3.08;;;;;;;21.15;20.23;97461.34;10457403;28;20036;-75
2021/04/20 14:29:12;;;;;;;6.40;3.90;;;;;;;20.92;20.76;97462.22;10439233;28;20052;-75
2021/04/20 14:34:33;;;;;;;7.45;5.07;;;;;;;20.71;21.85;97458.94;10426557;28;20123;-75
2021/04/20 14:39:54;;;;;;;6.82;4.97;;;;;;;20.86;22.10;97460.00;10454147;28;20480;-74
2021/04/20 14:45:18;;;;;;;6.88;6.07;;;;;;;20.99;22.94;97460.97;10440145;28;20037;-74
2021/04/20 14:50:42;;;;;;;12.13;5.90;;;;;;;21.10;23.42;97462.63;10455261;28;20384;-76
2021/04/20 14:56:05;;;;;;;7.28;5.55;;;;;;;21.10;23.84;97456.97;10448631;28;20048;-74
2021/04/20 15:01:27;;;;;;;6.82;5.25;;;;;;;21.21;24.03;97464.28;10441403;28;20045;-73
2021/04/20 15:07:10;;;;;;;7.03;5.30;;;;;;;21.36;24.25;97463.22;10416139;28;20037;-74
2021/04/20 15:12:35;;;;;;;8.80;5.88;;;;;;;21.05;24.83;97459.00;10444797;28;20041;-75
2021/04/20 15:18:03;;;;;;;10.48;5.78;;;;;;;20.65;25.39;97461.63;10458229;28;20399;-75
2021/04/20 15:23:44;;;;;;;7.88;5.70;;;;;;;20.60;26.24;97462.94;10458175;28;20052;-73
2021/04/20 15:29:07;;;;;;;8.73;5.80;;;;;;;20.94;26.36;97459.44;10458169;28;20064;-74
2021/04/20 15:34:28;;;;;;;6.25;5.32;;;;;;;20.95;26.43;97472.97;10457635;28;20049;-74
2021/04/20 15:39:48;;;;;;;7.47;4.78;;;;;;;20.69;26.71;97470.25;10443580;28;20488;-76
2021/04/20 15:45:10;;;;;;;5.72;4.53;;;;;;;20.24;27.39;97471.22;10457533;28;20090;-74
2021/04/20 15:50:33;;;;;;;11.88;5.40;;;;;;;20.01;27.67;97467.13;10429611;28;20059;-75
2021/04/20 15:56:23;;;;;;;6.78;5.28;;;;;;;19.63;29.37;97473.19;10443958;28;20052;-76
2021/04/20 16:01:45;;;;;;;6.20;5.40;;;;;;;19.39;28.85;97463.97;10457772;28;20044;-74
2021/04/20 16:07:06;;;;;;;8.23;5.63;;;;;;;19.23;29.35;97463.53;10445182;28;20044;-74
2021/04/20 16:12:28;;;;;;;6.28;5.30;;;;;;;19.04;29.67;97465.81;10443521;28;20037;-73
2021/04/20 16:17:49;;;;;;;7.22;5.00;;;;;;;18.91;29.66;97469.63;10458007;28;20076;-73
2021/04/20 16:23:11;;;;;;;6.43;5.82;;;;;;;18.48;30.13;97464.75;10456889;28;20078;-74
2021/04/20 16:28:33;;;;;;;7.63;6.15;;;;;;;18.24;30.67;97464.69;10457225;28;20052;-76
2021/04/20 16:33:58;;;;;;;11.98;6.07;;;;;;;18.14;30.83;97455.84;10457730;28;20041;-74
2021/04/20 16:40:03;;;;;;;10.25;6.50;;;;;;;17.83;31.27;97457.66;10456576;28;20063;-73
2021/04/20 16:45:51;;;;;;;9.23;6.57;;;;;;;17.39;33.09;97459.59;10455077;28;20041;-75
2021/04/20 16:52:08;;;;;;;9.68;5.75;;;;;;;17.05;33.08;97459.03;10441097;28;20049;-74
2021/04/20 16:58:21;;;;;;;8.18;6.10;;;;;;;16.68;33.09;97457.63;10456574;28;20041;-73
2021/04/20 17:04:01;;;;;;;8.07;5.80;;;;;;;16.43;33.48;97461.56;10456802;28;20045;-71
2021/04/20 17:09:25;;;;;;;10.65;6.00;;;;;;;16.24;33.59;97473.47;10459256;28;20041;-73
2021/04/20 17:15:08;;;;;;;7.35;6.15;;;;;;;15.92;33.81;97479.19;10457076;28;20163;-74
2021/04/20 17:21:19;;;;;;;10.07;5.63;;;;;;;15.74;34.41;97476.31;10466957;28;20053;-74
2021/04/20 17:27:10;;;;;;;9.15;5.65;;;;;;;15.48;34.54;97482.88;10469293;28;20052;-74
2021/04/20 17:32:49;;;;;;;6.90;5.78;;;;;;;15.21;35.16;97478.13;10459324;28;20439;-76
2021/04/20 17:38:28;;;;;;;8.43;6.00;;;;;;;14.98;35.66;97491.19;10463947;28;20056;-75
2021/04/20 17:44:43;;;;;;;7.05;5.53;;;;;;;14.73;36.87;97492.13;10464392;28;20045;-73
2021/04/20 17:50:44;;;;;;;13.25;6.45;;;;;;;14.41;36.54;97505.31;10464099;28;20053;-74
2021/04/20 17:56:32;;;;;;;7.78;5.78;;;;;;;14.17;36.83;97504.13;10452081;28;20442;-74
2021/04/20 18:02:13;;;;;;;7.82;5.90;;;;;;;13.98;37.11;97497.59;10450284;28;20037;-73
2021/04/20 18:08:02;;;;;;;7.32;5.68;;;;;;;13.76;37.97;97504.88;10464049;28;20045;-76
2021/04/20 18:13:44;;;;;;;7.38;6.05;;;;;;;13.58;38.64;97515.16;10464778;28;20483;-74
2021/04/20 18:19:26;;;;;;;7.95;6.40;;;;;;;13.42;38.75;97507.38;10463628;28;20491;-74
2021/04/20 18:25:16;;;;;;;7.38;6.43;;;;;;;13.27;39.39;97518.44;10463406;28;20041;-74
2021/04/20 18:30:59;;;;;;;10.60;6.40;;;;;;;13.25;39.83;97521.16;10452058;28;20057;-76
2021/04/20 18:37:02;;;;;;;7.65;6.78;;;;;;;13.26;39.84;97525.41;10449756;28;20045;-74
2021/04/20 18:42:48;;;;;;;10.20;6.88;;;;;;;13.27;40.31;97530.38;10462633;28;20049;-74
2021/04/20 18:48:24;;;;;;;13.90;10.50;;;;;;;13.23;41.70;97535.78;10465183;28;20045;-75
2021/04/20 18:53:47;;;;;;;7.47;5.93;;;;;;;13.20;40.70;97547.47;10462700;28;20072;-75
2021/04/20 18:59:14;;;;;;;9.03;6.83;;;;;;;13.15;41.24;97552.13;10462400;28;20369;-76
2021/04/20 19:05:17;;;;;;;9.23;6.28;;;;;;;13.08;42.02;97556.66;10462285;28;20506;-75
2021/04/20 19:10:41;;;;;;;;;;;;;;;12.89;42.71;97551.41;10465908;28;20057;-75
2021/04/20 19:16:52;;;;;;;11.95;8.18;;;;;;;12.79;42.59;97565.56;10461844;28;20279;-75
2021/04/20 19:22:15;;;;;;;11.25;8.90;;;;;;;12.60;42.86;97551.88;10472415;28;20053;-76
2021/04/20 19:28:26;;;;;;;9.40;8.27;;;;;;;12.45;43.51;97555.97;10461406;28;20052;-74
2021/04/20 19:33:57;;;;;;;11.13;8.35;;;;;;;12.29;44.08;97561.34;10470406;28;20048;-75
2021/04/20 19:39:26;;;;;;;11.13;7.50;;;;;;;12.22;43.98;97556.75;10434308;28;20037;-76
2021/04/20 19:44:55;;;;;;;10.27;7.40;;;;;;;12.12;44.33;97563.81;10460383;28;20052;-73
2021/04/20 19:50:20;;;;;;;10.40;7.60;;;;;;;11.97;44.71;97554.63;10460092;28;20052;-74
2021/04/20 19:55:40;;;;;;;15.70;11.73;;;;;;;11.86;45.20;97563.72;10460765;28;20071;-74
2021/04/20 20:01:00;;;;;;;10.35;8.55;;;;;;;11.76;45.44;97557.50;10459741;28;20045;-74
2021/04/20 20:06:24;;;;;;;10.80;8.25;;;;;;;11.64;45.82;97565.88;10446273;28;20105;-75
2021/04/20 20:11:44;;;;;;;10.80;7.87;;;;;;;11.60;46.24;97564.94;10460224;28;20052;-75
2021/04/20 20:17:08;;;;;;;10.32;8.18;;;;;;;11.59;46.41;97569.06;10445638;28;20056;-76
2021/04/20 20:22:30;;;;;;;10.63;8.05;;;;;;;11.50;46.51;97559.44;10459759;28;20041;-75
2021/04/20 20:27:57;;;;;;;13.05;9.25;;;;;;;11.43;47.11;97560.41;10459732;28;20056;-74
2021/04/20 20:33:18;;;;;;;16.52;13.80;;;;;;;11.32;47.22;97561.84;10458489;28;20041;-74
2021/04/20 20:38:39;;;;;;;11.48;9.43;;;;;;;11.20;47.57;97561.13;10458742;28;20116;-74
2021/04/20 20:44:02;;;;;;;9.38;7.82;;;;;;;11.12;47.91;97558.53;10458701;28;20048;-76
2021/04/20 20:49:35;;;;;;;12.23;7.28;;;;;;;11.05;48.17;97558.75;10444169;28;20056;-75
2021/04/20 20:54:58;;;;;;;10.43;7.38;;;;;;;10.98;48.34;97556.91;10449750;28;20036;-76
2021/04/20 21:00:23;;;;;;;11.20;8.48;;;;;;;10.83;48.48;97564.41;10466111;28;20090;-74
2021/04/20 21:05:44;;;;;;;13.80;8.90;;;;;;;10.78;49.14;97557.09;10452398;28;20048;-74
2021/04/20 21:11:07;;;;;;;12.75;8.82;;;;;;;10.80;49.05;97559.28;10452360;28;20068;-75
2021/04/20 21:16:29;;;;;;;16.48;11.88;;;;;;;10.78;49.11;97557.09;10452168;28;20110;-74
2021/04/20 21:21:54;;;;;;;11.90;8.48;;;;;;;10.73;49.33;97549.81;10466057;28;20037;-75
2021/04/20 21:27:24;;;;;;;13.27;9.02;;;;;;;10.66;49.89;97555.59;10465478;28;20449;-74
2021/04/20 21:32:48;;;;;;;11.13;8.55;;;;;;;10.59;49.83;97552.41;10465513;28;20045;-75
2021/04/20 21:38:20;;;;;;;11.23;8.80;;;;;;;10.43;49.63;97551.38;10465989;28;20052;-74
2021/04/20 21:43:52;;;;;;;11.57;9.18;;;;;;;10.36;50.35;97552.31;10450917;28;20099;-73
2021/04/20 21:49:15;;;;;;;12.77;9.50;;;;;;;10.31;50.48;97556.16;10451293;28;20045;-75
2021/04/20 21:54:46;;;;;;;14.70;10.10;;;;;;;10.22;50.72;97556.94;10464845;28;20037;-75
2021/04/20 22:00:12;;;;;;;13.57;10.15;;;;;;;10.15;50.64;97552.28;10450102;28;20045;-76
2021/04/20 22:05:39;;;;;;;13.52;9.50;;;;;;;10.11;51.22;97554.78;10435917;28;20525;-75
2021/04/20 22:11:10;;;;;;;9.23;8.23;;;;;;;10.02;51.12;97548.69;10449577;28;20045;-74
2021/04/20 22:16:31;;;;;;;13.25;8.48;;;;;;;9.93;51.28;97563.41;10463487;28;20045;-75
2021/04/20 22:21:52;;;;;;;9.85;7.97;;;;;;;9.81;51.70;97562.59;10463740;28;20065;-73
2021/04/20 22:27:12;;;;;;;12.77;8.20;;;;;;;9.75;52.08;97565.00;10463273;28;20040;-74
2021/04/20 22:32:32;;;;;;;11.45;7.95;;;;;;;9.69;51.96;97567.34;10463183;28;20049;-75
2021/04/20 22:37:53;;;;;;;10.65;7.90;;;;;;;9.64;52.25;97571.19;10420973;28;20052;-72
2021/04/20 22:43:15;;;;;;;10.13;7.40;;;;;;;9.63;52.43;97578.81;10448339;28;20411;-75
2021/04/20 22:48:39;;;;;;;8.68;6.47;;;;;;;9.70;52.76;97574.38;10462669;28;20048;-72
2021/04/20 22:54:00;;;;;;;12.30;8.05;;;;;;;9.85;52.70;97574.03;10462018;28;20041;-76
2021/04/20 22:59:25;;;;;;;10.68;7.68;;;;;;;10.04;53.19;97565.56;10434209;28;20048;-74
2021/04/20 23:04:46;;;;;;;9.43;7.10;;;;;;;10.22;52.58;97566.03;10461799;28;20045;-74
2021/04/20 23:10:07;;;;;;;10.13;6.72;;;;;;;10.40;52.59;97558.13;10461064;28;20387;-74
2021/04/20 23:15:30;;;;;;;10.38;7.18;;;;;;;10.55;52.48;97557.75;10460409;28;20407;-74
2021/04/20 23:20:50;;;;;;;9.77;7.25;;;;;;;10.69;52.54;97557.19;10460221;28;20037;-74
2021/04/20 23:26:32;;;;;;;11.98;7.57;;;;;;;10.75;52.72;97552.00;10460518;28;20048;-74
2021/04/20 23:32:09;;;;;;;9.95;7.07;;;;;;;10.72;52.89;97550.41;10460098;28;20396;-74
2021/04/20 23:37:30;;;;;;;10.15;7.55;;;;;;;10.66;53.17;97547.22;10460447;28;20041;-73
2021/04/20 23:42:50;;;;;;;11.25;7.65;;;;;;;10.53;53.11;97546.44;10459699;28;20102;-75
2021/04/20 23:48:11;;;;;;;10.43;7.50;;;;;;;10.47;53.40;97539.75;10459564;28;20094;-74
2021/04/20 23:53:32;;;;;;;8.85;7.07;;;;;;;10.36;54.75;97534.84;10445778;28;20166;-74
2021/04/20 23:58:53;;;;;;;9.27;6.97;;;;;;;10.18;54.02;97523.19;10459126;28;20041;-73
